Time;durP1;ratioP1;P1;durP2;ratioP2;P2;SDS_P1;SDS_P2;PMS_P1;PMS_P2;Temp;Humidity;BMP_temperature;BMP_pressure;BME280_temperature;BME280_humidity;BME280_pressure;Samples;Min_cycle;Max_cycle;Signal;HPM_P1;HPM_P2
2023/12/24 00:01:17;;;;;;;0.5;0.5;;;;;;;8.28;53.99512;934.991;;;;
2023/12/24 00:03:49;;;;;;;0.5;0.5;;;;;;;8.27;54.00586;934.991;;;;
2023/12/24 00:06:18;;;;;;;0.6;0.6;;;;;;;8.17;54.75391;935.052;;;;
2023/12/24 00:08:47;;;;;;;0.7;0.7;;;;;;;8.09;55.20996;934.9963;;;;
2023/12/24 00:11:16;;;;;;;0.7;0.7;;;;;;;8.01;54.76855;935.0761;;;;
2023/12/24 00:13:42;;;;;;;0.8;0.7;;;;;;;7.96;55.88574;935.1479;;;;
2023/12/24 00:16:16;;;;;;;0.8;0.7;;;;;;;7.87;56.9873;934.978;;;;
2023/12/24 00:18:50;;;;;;;1.2;0.9;;;;;;;7.78;57.83594;935.165;;;;
2023/12/24 00:21:15;;;;;;;1.7;0.9;;;;;;;7.69;56.48438;935.0938;;;;
2023/12/24 00:23:49;;;;;;;1.2;0.8;;;;;;;7.61;56.62207;935.099;;;;
2023/12/24 00:26:19;;;;;;;1.2;0.9;;;;;;;7.68;57.3916;935.1088;;;;
2023/12/24 00:28:44;;;;;;;0.9;0.9;;;;;;;7.62;57.43945;934.9066;;;;
2023/12/24 00:31:13;;;;;;;0.8;0.6;;;;;;;7.61;57.94922;935.0174;;;;
2023/12/24 00:33:38;;;;;;;2.2;1;;;;;;;7.49;58.72656;935.2022;;;;
2023/12/24 00:36:05;;;;;;;2;1.9;;;;;;;7.31;59.17773;934.9504;;;;
2023/12/24 00:38:30;;;;;;;2.1;1.7;;;;;;;7.31;59.66504;935.1158;;;;
2023/12/24 00:40:56;;;;;;;1.6;1.1;;;;;;;7.2;59.875;935.1138;;;;
2023/12/24 00:43:21;;;;;;;1.6;0.8;;;;;;;7.09;60.93652;934.9883;;;;
2023/12/24 00:45:47;;;;;;;1.4;1.3;;;;;;;7.11;61.14453;935.2476;;;;
2023/12/24 00:48:11;;;;;;;1.2;1;;;;;;;7.01;60.91504;935.0812;;;;
2023/12/24 00:50:38;;;;;;;2.3;1.6;;;;;;;6.91;62.98438;935.0815;;;;
2023/12/24 00:53:09;;;;;;;1.9;1.7;;;;;;;6.93;62.46582;935.3312;;;;
2023/12/24 00:55:36;;;;;;;2.5;1.5;;;;;;;6.71;63.38477;935.0894;;;;
2023/12/24 00:58:06;;;;;;;1.7;1.3;;;;;;;6.82;62.78809;935.2224;;;;
2023/12/24 01:00:29;;;;;;;0.9;0.9;;;;;;;6.73;63.02539;935.1896;;;;
2023/12/24 01:03:03;;;;;;;2.3;1.5;;;;;;;6.61;63.16504;935.3325;;;;
2023/12/24 01:05:40;;;;;;;2.3;1.9;;;;;;;6.55;63.58789;935.2461;;;;
2023/12/24 01:08:09;;;;;;;1.6;1.2;;;;;;;6.53;62.82617;935.1317;;;;
2023/12/24 01:10:35;;;;;;;1.8;1.1;;;;;;;6.5;63.07031;935.2671;;;;
2023/12/24 01:13:04;;;;;;;1.1;1;;;;;;;6.42;63.04688;935.0947;;;;
2023/12/24 01:15:34;;;;;;;1;0.9;;;;;;;6.41;63.65625;935.1025;;;;
2023/12/24 01:17:59;;;;;;;0.8;0.8;;;;;;;6.47;63.6543;935.3709;;;;
2023/12/24 01:20:30;;;;;;;3.8;2.3;;;;;;;6.43;63.98828;935.2839;;;;
2023/12/24 01:22:56;;;;;;;1.4;1.3;;;;;;;6.47;63.84766;935.3474;;;;
2023/12/24 01:25:26;;;;;;;1.3;1.1;;;;;;;6.47;64.00488;935.2523;;;;
2023/12/24 01:27:52;;;;;;;1.2;1.1;;;;;;;6.49;64.3125;935.2867;;;;
2023/12/24 01:30:24;;;;;;;2.9;1.8;;;;;;;6.44;64.12402;935.2888;;;;
2023/12/24 01:32:51;;;;;;;0.7;0.7;;;;;;;6.42;64.14453;935.113;;;;
2023/12/24 01:35:17;;;;;;;1;0.9;;;;;;;6.43;64.62109;935.193;;;;
2023/12/24 01:37:43;;;;;;;2;1.1;;;;;;;6.38;64.16113;935.1531;;;;
2023/12/24 01:40:11;;;;;;;1.2;1.1;;;;;;;6.34;64.45898;935.2731;;;;
2023/12/24 01:42:43;;;;;;;1.1;1;;;;;;;6.26;64.94629;935.3799;;;;
2023/12/24 01:45:08;;;;;;;2.9;1.6;;;;;;;6.24;64.81836;935.0925;;;;
2023/12/24 01:47:33;;;;;;;8.7;7.9;;;;;;;6.18;65.53223;935.1922;;;;
2023/12/24 01:49:59;;;;;;;3.5;3.2;;;;;;;6.18;65.58887;935.2512;;;;
2023/12/24 01:52:24;;;;;;;3.9;3.5;;;;;;;6.1;66.28906;935.2536;;;;
2023/12/24 01:54:51;;;;;;;3.7;2.5;;;;;;;6.02;66.80664;935.1508;;;;
2023/12/24 01:57:16;;;;;;;4.3;3.9;;;;;;;6.03;66.67285;935.1423;;;;
2023/12/24 01:59:43;;;;;;;2.6;2.4;;;;;;;6.02;66.41309;935.2109;;;;
2023/12/24 02:02:08;;;;;;;2.2;1.9;;;;;;;6.1;66.24316;935.2497;;;;
2023/12/24 02:04:38;;;;;;;1.4;1.3;;;;;;;5.91;66.06836;935.2368;;;;
2023/12/24 02:07:06;;;;;;;0.9;0.9;;;;;;;5.98;66.14453;935.1101;;;;
2023/12/24 02:09:32;;;;;;;1.1;1;;;;;;;5.91;67.11816;935.2659;;;;
2023/12/24 02:11:59;;;;;;;1.1;1;;;;;;;5.83;67.01367;935.1152;;;;
2023/12/24 02:14:24;;;;;;;1.2;1;;;;;;;5.96;66.82129;935.1754;;;;
2023/12/24 02:16:52;;;;;;;1.2;0.9;;;;;;;5.8;67.40527;935.0655;;;;
2023/12/24 02:19:17;;;;;;;1.3;0.9;;;;;;;5.75;67.30664;935.0359;;;;
2023/12/24 02:21:47;;;;;;;0.8;0.8;;;;;;;5.72;67.96875;935.1717;;;;
2023/12/24 02:24:17;;;;;;;2.1;0.9;;;;;;;5.66;67.95996;934.8855;;;;
2023/12/24 02:26:43;;;;;;;1.3;0.9;;;;;;;5.75;67.28418;935.1939;;;;
2023/12/24 02:29:08;;;;;;;1.4;0.6;;;;;;;5.61;67.99805;935.1142;;;;
2023/12/24 02:31:33;;;;;;;1;0.7;;;;;;;5.58;68.05957;935.1914;;;;
2023/12/24 02:33:58;;;;;;;1.2;1;;;;;;;5.58;68.23926;935.087;;;;
2023/12/24 02:36:25;;;;;;;2.2;0.8;;;;;;;5.61;68.36914;935.1228;;;;
2023/12/24 02:38:50;;;;;;;0.9;0.9;;;;;;;5.63;68.08984;935.188;;;;
2023/12/24 02:41:15;;;;;;;1;0.9;;;;;;;5.48;68.45996;935.1566;;;;
2023/12/24 02:43:47;;;;;;;1.1;1;;;;;;;5.38;68.25391;934.9749;;;;
2023/12/24 02:46:20;;;;;;;1.9;1.4;;;;;;;5.53;68.89746;935.1563;;;;
2023/12/24 02:48:51;;;;;;;1.4;1;;;;;;;5.43;69.1875;935.2006;;;;
2023/12/24 02:51:19;;;;;;;1.5;0.9;;;;;;;5.31;69.74219;935.1602;;;;
2023/12/24 02:53:45;;;;;;;1.1;1;;;;;;;5.34;69.4082;935.1508;;;;
2023/12/24 02:56:14;;;;;;;2.2;0.8;;;;;;;5.28;69.83789;935.1555;;;;
2023/12/24 02:58:43;;;;;;;1;0.8;;;;;;;5.23;69.94336;934.9752;;;;
2023/12/24 03:01:06;;;;;;;1.2;0.9;;;;;;;5.22;70.07715;935.2403;;;;
2023/12/24 03:03:37;;;;;;;2.3;0.8;;;;;;;5.26;69.84668;935.1362;;;;
2023/12/24 03:06:02;;;;;;;0.9;0.9;;;;;;;5.06;69.9707;935.1791;;;;
2023/12/24 03:08:29;;;;;;;0.7;0.7;;;;;;;5.15;70.50391;935.2917;;;;
2023/12/24 03:10:54;;;;;;;0.8;0.8;;;;;;;5.08;70.61719;935.3208;;;;
2023/12/24 03:13:20;;;;;;;1.6;1.5;;;;;;;4.96;70.61914;935.327;;;;
2023/12/24 03:15:45;;;;;;;1.8;1.4;;;;;;;4.91;71.36621;935.3992;;;;
2023/12/24 03:18:10;;;;;;;1.4;1.2;;;;;;;4.79;71.50488;935.3965;;;;
2023/12/24 03:20:37;;;;;;;1.9;1.4;;;;;;;4.77;71.34375;935.3684;;;;
2023/12/24 03:23:02;;;;;;;1.4;1.3;;;;;;;4.81;71.10254;935.4225;;;;
2023/12/24 03:25:33;;;;;;;1.2;1.1;;;;;;;4.8;71.02148;935.3833;;;;
2023/12/24 03:27:58;;;;;;;2.1;1.1;;;;;;;4.78;72.60547;935.3322;;;;
2023/12/24 03:30:27;;;;;;;1.2;1.1;;;;;;;4.77;72.62695;935.2831;;;;
2023/12/24 03:32:53;;;;;;;1.1;0.9;;;;;;;4.8;72.3291;935.2675;;;;
2023/12/24 03:35:20;;;;;;;2.4;0.8;;;;;;;4.81;72.70215;935.4067;;;;
2023/12/24 03:37:45;;;;;;;2.7;1.7;;;;;;;4.94;71.49512;935.2499;;;;
2023/12/24 03:40:17;;;;;;;1.9;1.2;;;;;;;4.84;71.00488;935.1267;;;;
2023/12/24 03:42:48;;;;;;;2.4;1.9;;;;;;;4.93;70.62598;935.2411;;;;
2023/12/24 03:45:16;;;;;;;1.5;1.4;;;;;;;4.75;71.25098;935.1092;;;;
2023/12/24 03:47:41;;;;;;;0.9;0.9;;;;;;;4.86;70.79395;935.1699;;;;
2023/12/24 03:50:13;;;;;;;1;0.9;;;;;;;4.67;71.33887;935.0756;;;;
2023/12/24 03:52:42;;;;;;;0.9;0.9;;;;;;;4.7;70.75781;935.0654;;;;
2023/12/24 03:55:13;;;;;;;0.7;0.7;;;;;;;4.68;70.51758;934.9797;;;;
2023/12/24 03:57:42;;;;;;;0.9;0.7;;;;;;;4.64;70.17285;934.9556;;;;
2023/12/24 04:02:28;;;;;;;0.7;0.7;;;;;;;4.72;70.45801;934.9146;;;;
2023/12/24 04:04:53;;;;;;;0.5;0.5;;;;;;;4.7;70.30664;934.8429;;;;
2023/12/24 04:07:24;;;;;;;0.9;0.7;;;;;;;4.64;70.10645;934.7413;;;;
2023/12/24 04:09:56;;;;;;;0.6;0.6;;;;;;;4.69;70.21582;934.759;;;;
2023/12/24 04:12:21;;;;;;;1.7;0.9;;;;;;;4.64;70.71484;934.6917;;;;
2023/12/24 04:14:50;;;;;;;1;0.9;;;;;;;4.61;71.11426;934.6561;;;;
2023/12/24 04:17:16;;;;;;;1;0.8;;;;;;;4.64;71.1875;934.6199;;;;
2023/12/24 04:19:41;;;;;;;1.1;1;;;;;;;4.48;71.27148;934.5404;;;;
2023/12/24 04:22:12;;;;;;;0.8;0.8;;;;;;;4.42;72.00586;934.6091;;;;
2023/12/24 04:24:43;;;;;;;1.2;1.1;;;;;;;4.35;72.73438;934.6967;;;;
2023/12/24 04:27:11;;;;;;;2.3;1.1;;;;;;;4.38;72.95605;934.7056;;;;
2023/12/24 04:29:36;;;;;;;1.5;0.9;;;;;;;4.4;72.125;934.8383;;;;
2023/12/24 04:32:04;;;;;;;2.1;1;;;;;;;4.38;71.87402;934.7748;;;;
2023/12/24 04:34:29;;;;;;;1.7;1.1;;;;;;;4.56;71.84961;934.8525;;;;
2023/12/24 04:36:54;;;;;;;1;0.9;;;;;;;4.54;72.44336;934.9189;;;;
2023/12/24 04:39:21;;;;;;;1;0.9;;;;;;;4.57;72.67285;934.8362;;;;
2023/12/24 04:41:46;;;;;;;1;0.8;;;;;;;4.49;73.40137;934.8702;;;;
2023/12/24 04:44:17;;;;;;;2.3;1.1;;;;;;;4.54;73.5791;935.0396;;;;
2023/12/24 04:46:50;;;;;;;2.7;2.1;;;;;;;4.48;73.61523;934.7778;;;;
2023/12/24 04:49:14;;;;;;;2.8;2.2;;;;;;;4.46;73.91602;934.9824;;;;
2023/12/24 04:51:40;;;;;;;2.8;2.3;;;;;;;4.45;73.51855;934.9772;;;;
2023/12/24 04:54:05;;;;;;;2.9;2.6;;;;;;;4.49;73.70508;934.9144;;;;
2023/12/24 04:56:35;;;;;;;2.6;2.1;;;;;;;4.51;73.8125;934.7377;;;;
2023/12/24 04:59:00;;;;;;;1.7;1.5;;;;;;;4.51;75.12988;934.971;;;;
2023/12/24 05:01:28;;;;;;;2.4;1.2;;;;;;;4.4;75.10742;934.9401;;;;
2023/12/24 05:03:52;;;;;;;1;0.9;;;;;;;4.46;74.86133;935.2156;;;;
2023/12/24 05:06:21;;;;;;;15.2;12.1;;;;;;;4.46;74.63477;935.0641;;;;
2023/12/24 05:08:51;;;;;;;3.9;3.4;;;;;;;4.51;74.48633;935.1846;;;;
2023/12/24 05:11:20;;;;;;;3;2.5;;;;;;;4.47;74.66016;935.1552;;;;
2023/12/24 05:13:49;;;;;;;1.5;1.3;;;;;;;4.5;74.7666;935.1552;;;;
2023/12/24 05:16:14;;;;;;;2.1;1.2;;;;;;;4.5;74.31641;935.1655;;;;
2023/12/24 05:18:39;;;;;;;1.5;1;;;;;;;4.56;74.93457;935.1733;;;;
2023/12/24 05:21:04;;;;;;;3;2.7;;;;;;;4.68;74.10938;935.0308;;;;
2023/12/24 05:23:32;;;;;;;1.5;1.3;;;;;;;4.55;73.09668;935.0981;;;;
2023/12/24 05:25:57;;;;;;;1.6;1.2;;;;;;;4.6;73.45508;935.1917;;;;
2023/12/24 05:28:26;;;;;;;1.6;1.4;;;;;;;4.6;74.09668;935.1901;;;;
2023/12/24 05:30:52;;;;;;;1.6;1.5;;;;;;;4.71;73.33984;935.0673;;;;
2023/12/24 05:33:23;;;;;;;2.4;1.6;;;;;;;4.72;73.43164;935.077;;;;
2023/12/24 05:35:48;;;;;;;2.1;1.5;;;;;;;4.69;73.72754;934.9584;;;;
2023/12/24 05:38:19;;;;;;;1.4;1.3;;;;;;;4.73;73.73535;934.9983;;;;
2023/12/24 05:40:44;;;;;;;2.1;1.7;;;;;;;4.74;73.57031;935.0625;;;;
2023/12/24 05:43:09;;;;;;;2.7;1.8;;;;;;;4.67;74.00781;935.216;;;;
2023/12/24 05:45:35;;;;;;;2.7;2.1;;;;;;;4.77;73.76465;935.2736;;;;
2023/12/24 05:47:59;;;;;;;5.5;4;;;;;;;4.76;73.91113;935.2908;;;;
2023/12/24 05:50:26;;;;;;;7.5;4.5;;;;;;;4.68;74.24609;935.2399;;;;
2023/12/24 05:52:57;;;;;;;4.4;3.5;;;;;;;4.67;74.25586;935.3027;;;;
2023/12/24 05:55:27;;;;;;;4.7;3.2;;;;;;;4.67;74.33496;935.1403;;;;
2023/12/24 05:57:52;;;;;;;4.6;3.1;;;;;;;4.64;74.64355;935.1385;;;;
2023/12/24 06:00:23;;;;;;;3.7;2.8;;;;;;;4.64;74.76953;935.2073;;;;
2023/12/24 06:02:49;;;;;;;3.6;2.4;;;;;;;4.64;74.73535;935.0014;;;;
2023/12/24 06:05:14;;;;;;;2.5;1.9;;;;;;;4.78;73.7002;935.0422;;;;
2023/12/24 06:07:44;;;;;;;1.9;1.7;;;;;;;4.73;73.80371;935.0723;;;;
2023/12/24 06:10:10;;;;;;;1.7;1.6;;;;;;;4.72;73.62109;935.0595;;;;
2023/12/24 06:12:43;;;;;;;1.6;1.5;;;;;;;4.77;73.22559;935.0577;;;;
2023/12/24 06:15:07;;;;;;;1.3;1.2;;;;;;;4.72;73.02637;934.9681;;;;
2023/12/24 06:17:36;;;;;;;1.6;1.3;;;;;;;4.7;73.41602;935.1094;;;;
2023/12/24 06:20:06;;;;;;;1.3;1.2;;;;;;;4.81;72.96094;935.0117;;;;
2023/12/24 06:22:37;;;;;;;1.6;1.2;;;;;;;4.71;73.49609;934.8708;;;;
2023/12/24 06:25:07;;;;;;;1.7;1.6;;;;;;;4.69;73.60742;934.7181;;;;
2023/12/24 06:27:38;;;;;;;3;2;;;;;;;4.63;73.78613;934.7197;;;;
2023/12/24 06:30:04;;;;;;;4.4;2.8;;;;;;;4.61;74.18848;934.7429;;;;
2023/12/24 06:32:29;;;;;;;6.3;3.9;;;;;;;4.63;74.34766;934.7866;;;;
2023/12/24 06:34:54;;;;;;;7.3;3.8;;;;;;;4.51;74.29688;934.7283;;;;
2023/12/24 06:37:19;;;;;;;6.7;4;;;;;;;4.52;74.49902;934.7339;;;;
2023/12/24 06:39:52;;;;;;;8.9;4.3;;;;;;;4.55;73.875;934.6836;;;;
2023/12/24 06:42:17;;;;;;;6.5;3.6;;;;;;;4.54;73.58105;934.6833;;;;
2023/12/24 06:44:48;;;;;;;5.2;3.3;;;;;;;4.58;73.36035;934.4515;;;;
2023/12/24 06:47:21;;;;;;;3.8;2.4;;;;;;;4.61;72.46582;934.5064;;;;
2023/12/24 06:49:51;;;;;;;2.4;1.8;;;;;;;4.62;72.16309;934.4348;;;;
2023/12/24 06:52:16;;;;;;;2.4;1.5;;;;;;;4.65;72.04395;934.3867;;;;
2023/12/24 06:54:44;;;;;;;2.8;1.8;;;;;;;4.73;70.98926;934.5299;;;;
2023/12/24 06:57:09;;;;;;;2.1;1.9;;;;;;;4.7;71.15137;934.4391;;;;
2023/12/24 06:59:38;;;;;;;3;2.2;;;;;;;4.82;70.1123;934.4202;;;;
2023/12/24 07:02:03;;;;;;;3.4;2.6;;;;;;;4.85;69.87012;934.3785;;;;
2023/12/24 07:04:31;;;;;;;4.7;3;;;;;;;4.9;69.87891;934.4799;;;;
2023/12/24 07:06:56;;;;;;;5.2;3.6;;;;;;;4.98;69.53027;934.4438;;;;
2023/12/24 07:09:22;;;;;;;1.6;1.2;;;;;;;5.07;68.95898;934.6475;;;;
2023/12/24 07:11:47;;;;;;;2.6;1.7;;;;;;;4.95;69.80762;934.515;;;;
2023/12/24 07:14:16;;;;;;;2.6;2.1;;;;;;;4.98;70.00391;934.5916;;;;
2023/12/24 07:16:41;;;;;;;5.8;4.8;;;;;;;4.87;70.09863;934.588;;;;
2023/12/24 07:19:09;;;;;;;3.6;2.9;;;;;;;4.88;70.42676;934.537;;;;
2023/12/24 07:21:35;;;;;;;1.4;1.3;;;;;;;4.87;70.96582;934.6006;;;;
2023/12/24 07:24:01;;;;;;;1.6;1.2;;;;;;;4.84;71.35449;934.5257;;;;
2023/12/24 07:26:26;;;;;;;1.6;1.3;;;;;;;4.77;71.60352;934.6317;;;;
2023/12/24 07:28:58;;;;;;;1.4;1.2;;;;;;;4.77;71.54688;934.5048;;;;
2023/12/24 07:31:26;;;;;;;1.3;1.2;;;;;;;4.87;71.82227;934.6708;;;;
2023/12/24 07:33:51;;;;;;;1.6;1.2;;;;;;;4.84;71.8291;934.6299;;;;
2023/12/24 07:36:21;;;;;;;1.5;1.2;;;;;;;4.78;71.9873;934.5856;;;;
2023/12/24 07:38:46;;;;;;;1.7;1.3;;;;;;;4.78;71.87305;934.5814;;;;
2023/12/24 07:41:16;;;;;;;2.1;1.5;;;;;;;4.89;71.57813;934.6099;;;;
2023/12/24 07:43:41;;;;;;;3.2;2.5;;;;;;;4.9;71.97363;934.5279;;;;
2023/12/24 07:46:09;;;;;;;2;1.5;;;;;;;4.9;71.72754;934.7332;;;;
2023/12/24 07:48:34;;;;;;;2.5;1.6;;;;;;;4.94;72.08105;934.6591;;;;
2023/12/24 07:51:00;;;;;;;1.8;1.4;;;;;;;4.97;71.99609;934.6266;;;;
2023/12/24 07:53:25;;;;;;;2.2;2;;;;;;;5.02;72.05176;934.6117;;;;
2023/12/24 07:55:55;;;;;;;5.2;3.6;;;;;;;5.07;72.26074;934.5717;;;;
2023/12/24 07:58:24;;;;;;;4;2.4;;;;;;;5.03;72.19922;934.4501;;;;
2023/12/24 08:00:50;;;;;;;40.9;26.1;;;;;;;5.11;71.99902;934.4442;;;;
2023/12/24 08:03:18;;;;;;;8.9;6.1;;;;;;;5.29;71.86035;934.702;;;;
2023/12/24 08:05:43;;;;;;;5.6;4.7;;;;;;;5.19;72.46191;934.5106;;;;
2023/12/24 08:08:12;;;;;;;4.9;4.2;;;;;;;5.23;71.80469;934.699;;;;
2023/12/24 08:10:37;;;;;;;4.8;3.6;;;;;;;5.22;71.7002;934.4311;;;;
2023/12/24 08:13:06;;;;;;;5.5;4.6;;;;;;;5.27;71.94434;934.6091;;;;
2023/12/24 08:15:31;;;;;;;6.4;5;;;;;;;5.3;72.01855;934.6412;;;;
2023/12/24 08:18:00;;;;;;;22.4;16;;;;;;;5.48;71.11328;934.5733;;;;
2023/12/24 08:20:25;;;;;;;10.7;7.8;;;;;;;5.61;71.19141;934.7264;;;;
2023/12/24 08:22:54;;;;;;;3.5;3.2;;;;;;;5.67;71.77539;934.5656;;;;
2023/12/24 08:25:23;;;;;;;4.4;2.7;;;;;;;5.79;71.0293;934.6481;;;;
2023/12/24 08:27:48;;;;;;;31;23.6;;;;;;;5.89;70.9209;934.6774;;;;
2023/12/24 08:30:18;;;;;;;28.2;25.3;;;;;;;5.92;70.95996;934.5226;;;;
2023/12/24 08:32:42;;;;;;;13;11.8;;;;;;;6.19;70.29297;934.631;;;;
2023/12/24 08:35:10;;;;;;;8.3;7.5;;;;;;;6.3;70.36816;934.639;;;;
2023/12/24 08:37:37;;;;;;;11.6;10.5;;;;;;;6.38;69.91699;934.4445;;;;
2023/12/24 08:40:02;;;;;;;8.3;6.7;;;;;;;6.61;67.91797;934.5631;;;;
2023/12/24 08:42:27;;;;;;;8.3;5.6;;;;;;;6.63;68.14746;934.437;;;;
2023/12/24 08:44:56;;;;;;;8.7;6;;;;;;;6.77;67.90918;934.5463;;;;
2023/12/24 08:47:26;;;;;;;7.4;5.2;;;;;;;7.04;68.33691;934.4698;;;;
2023/12/24 08:49:57;;;;;;;5.9;4.3;;;;;;;7.03;67.15723;934.3993;;;;
2023/12/24 08:52:21;;;;;;;4;3.5;;;;;;;7.01;67.31348;934.524;;;;
2023/12/24 08:54:51;;;;;;;6.1;4.7;;;;;;;7.05;68.10059;934.394;;;;
2023/12/24 08:57:19;;;;;;;6.7;4.6;;;;;;;7.06;67.10547;934.463;;;;
2023/12/24 08:59:44;;;;;;;6.5;4.5;;;;;;;7.12;67.51172;934.4308;;;;
2023/12/24 09:02:14;;;;;;;5.6;3.8;;;;;;;7.24;66.96484;934.4718;;;;
2023/12/24 09:04:39;;;;;;;6.8;4.7;;;;;;;7.31;66.76074;934.2986;;;;
2023/12/24 09:07:08;;;;;;;8.3;5.9;;;;;;;7.42;67.12793;934.3187;;;;
2023/12/24 09:09:33;;;;;;;9.9;6.3;;;;;;;7.57;66.48145;934.2907;;;;
2023/12/24 09:12:01;;;;;;;9.9;6.9;;;;;;;7.65;65.93848;934.293;;;;
2023/12/24 09:14:31;;;;;;;10.2;5.8;;;;;;;7.89;64.88574;934.2687;;;;
2023/12/24 09:16:56;;;;;;;6.5;5.4;;;;;;;8.04;65.27148;934.2906;;;;
2023/12/24 09:19:26;;;;;;;6.2;4.3;;;;;;;8.49;63.64746;934.2555;;;;
2023/12/24 09:21:52;;;;;;;3.7;2.7;;;;;;;9.08;61.12891;934.092;;;;
2023/12/24 09:24:23;;;;;;;6.2;4.2;;;;;;;9.69;59.09668;934.3912;;;;
2023/12/24 09:26:48;;;;;;;4.4;3.1;;;;;;;10.13;59.60059;934.1572;;;;
2023/12/24 09:29:13;;;;;;;5.8;2.9;;;;;;;10.66;57.79004;934.387;;;;
2023/12/24 09:31:46;;;;;;;5.1;3.1;;;;;;;11.25;55.46777;934.2142;;;;
2023/12/24 09:34:14;;;;;;;5.6;3.6;;;;;;;11.5;54.97266;934.279;;;;
2023/12/24 09:36:39;;;;;;;4;2.5;;;;;;;11.44;54.26758;934.5413;;;;
2023/12/24 09:39:08;;;;;;;3.6;2.8;;;;;;;11.77;52.625;934.5493;;;;
2023/12/24 09:41:33;;;;;;;4.5;2.4;;;;;;;11.27;53.81152;934.5458;;;;
2023/12/24 09:44:00;;;;;;;2;1.8;;;;;;;11.12;54.72949;934.3995;;;;
2023/12/24 09:46:26;;;;;;;2.7;1.5;;;;;;;11.03;55.07129;934.3237;;;;
2023/12/24 09:48:52;;;;;;;0.8;0.8;;;;;;;11.01;54.94434;934.3452;;;;
2023/12/24 09:51:18;;;;;;;1.1;1;;;;;;;10.97;54.32227;934.4731;;;;
2023/12/24 09:53:48;;;;;;;1.3;1;;;;;;;10.79;54.98438;934.3251;;;;
2023/12/24 09:56:11;;;;;;;0.9;0.7;;;;;;;10.66;56.03125;934.4434;;;;
2023/12/24 09:58:37;;;;;;;1.3;1;;;;;;;10.81;55.78809;934.353;;;;
2023/12/24 10:01:03;;;;;;;1.1;1;;;;;;;10.88;55.30469;934.3845;;;;
2023/12/24 10:03:28;;;;;;;1.6;1;;;;;;;10.79;55.75;934.2056;;;;
2023/12/24 10:05:53;;;;;;;1;0.9;;;;;;;10.51;55.69141;934.2971;;;;
2023/12/24 10:08:18;;;;;;;1.2;1.1;;;;;;;10.4;56.73828;934.1588;;;;
2023/12/24 10:10:47;;;;;;;0.9;0.9;;;;;;;10.2;57.7168;934.0237;;;;
2023/12/24 10:13:12;;;;;;;1.2;1;;;;;;;10.05;58.25488;934.0383;;;;
2023/12/24 10:15:38;;;;;;;1.2;1;;;;;;;10.08;57.88379;933.966;;;;
2023/12/24 10:18:02;;;;;;;1.3;1.1;;;;;;;9.86;59.29004;933.8256;;;;
2023/12/24 10:20:33;;;;;;;1.3;1.2;;;;;;;9.62;58.90332;933.8025;;;;
2023/12/24 10:23:57;;;;;;;1.1;1;;;;;;;9.74;59.35352;933.8867;;;;
2023/12/24 10:26:23;;;;;;;1.4;1.1;;;;;;;10.01;59.26465;933.7252;;;;
2023/12/24 10:28:48;;;;;;;1.9;1.3;;;;;;;10.43;59.35742;933.9211;;;;
2023/12/24 10:31:14;;;;;;;1.1;1;;;;;;;10.7;58.20703;933.7381;;;;
2023/12/24 10:33:39;;;;;;;1.8;1.3;;;;;;;10.94;57.63281;933.5491;;;;
2023/12/24 10:36:06;;;;;;;1.3;1.2;;;;;;;11.23;56.84863;933.5567;;;;
2023/12/24 10:38:31;;;;;;;2;1.5;;;;;;;11.25;55.99316;933.5017;;;;
2023/12/24 10:40:56;;;;;;;1.6;1.4;;;;;;;11.72;55.91602;933.5772;;;;
2023/12/24 10:43:21;;;;;;;1.8;1.4;;;;;;;11.88;55.54688;933.6434;;;;
2023/12/24 10:45:47;;;;;;;2.1;1.7;;;;;;;12.05;54.80176;933.5594;;;;
2023/12/24 10:48:13;;;;;;;2;1.5;;;;;;;12.27;55.24121;933.4542;;;;
2023/12/24 10:50:38;;;;;;;1.6;1.5;;;;;;;12.76;52.53906;933.3799;;;;
2023/12/24 10:53:03;;;;;;;1.3;0.9;;;;;;;13.14;50.28613;933.1722;;;;
2023/12/24 10:55:28;;;;;;;0.4;0.4;;;;;;;13.55;49.28906;933.1675;;;;
2023/12/24 10:57:53;;;;;;;0.3;0.3;;;;;;;14.06;47.63184;933.077;;;;
2023/12/24 11:00:22;;;;;;;0.4;0.2;;;;;;;14.45;46.87891;933.1152;;;;
2023/12/24 11:02:47;;;;;;;0.3;0.3;;;;;;;14.73;45.80176;933.118;;;;
2023/12/24 11:05:19;;;;;;;0.9;0.3;;;;;;;14.93;45.42969;933.1145;;;;
2023/12/24 11:07:52;;;;;;;0.2;0.2;;;;;;;15;44.80273;933.1022;;;;
2023/12/24 11:10:19;;;;;;;0.7;0.1;;;;;;;15.29;44.49805;933.2231;;;;
2023/12/24 11:12:51;;;;;;;0.4;0.2;;;;;;;15.51;44.11621;933.1835;;;;
2023/12/24 11:15:17;;;;;;;2.1;0.3;;;;;;;15.46;43.6377;933.0985;;;;
2023/12/24 11:17:55;;;;;;;0.2;0.2;;;;;;;15.38;43.2832;932.8942;;;;
2023/12/24 11:20:20;;;;;;;1;0.3;;;;;;;15.64;42.90527;932.9827;;;;
2023/12/24 11:22:47;;;;;;;0.2;0.2;;;;;;;15.76;43.10254;932.9788;;;;
2023/12/24 11:25:12;;;;;;;0.2;0.2;;;;;;;15.74;41.94434;932.7649;;;;
2023/12/24 11:27:38;;;;;;;0.1;0.1;;;;;;;15.73;43.27148;932.8798;;;;
2023/12/24 11:30:04;;;;;;;0.6;0.2;;;;;;;15.93;42.13672;932.8055;;;;
2023/12/24 11:32:35;;;;;;;0.2;0.2;;;;;;;15.93;42.1709;932.7606;;;;
2023/12/24 11:35:00;;;;;;;0.2;0.2;;;;;;;15.99;42.26855;932.7835;;;;
2023/12/24 11:37:31;;;;;;;0.6;0.2;;;;;;;15.87;42.5;932.863;;;;
2023/12/24 11:39:59;;;;;;;0.1;0.1;;;;;;;15.75;42.43066;933.1106;;;;
2023/12/24 11:42:25;;;;;;;0.2;0.2;;;;;;;15.72;42.42871;932.795;;;;
2023/12/24 11:44:52;;;;;;;0.2;0.2;;;;;;;15.7;43.08398;932.9375;;;;
2023/12/24 11:47:17;;;;;;;1.5;0.2;;;;;;;15.81;42.26367;932.8918;;;;
2023/12/24 11:49:46;;;;;;;0.8;0.3;;;;;;;15.79;42.09961;932.9302;;;;
2023/12/24 11:52:16;;;;;;;0.3;0.2;;;;;;;15.9;42.35352;932.9988;;;;
2023/12/24 11:54:41;;;;;;;0.2;0.2;;;;;;;16.03;42.55078;932.9308;;;;
2023/12/24 11:57:11;;;;;;;0.3;0.1;;;;;;;16.07;41.99902;932.8681;;;;
2023/12/24 11:59:36;;;;;;;0.3;0.2;;;;;;;16.17;41.89258;932.9641;;;;
2023/12/24 12:02:01;;;;;;;0.2;0.2;;;;;;;16.22;41.48047;932.9261;;;;
2023/12/24 12:04:26;;;;;;;0.1;0.1;;;;;;;16.3;41.90527;932.8733;;;;
2023/12/24 12:06:55;;;;;;;0.4;0.3;;;;;;;16.39;42.53906;932.8433;;;;
2023/12/24 12:09:20;;;;;;;0.2;0.1;;;;;;;16.39;40.76855;932.8585;;;;
2023/12/24 12:11:51;;;;;;;1.2;0.4;;;;;;;16.21;41.46973;932.8162;;;;
2023/12/24 12:14:21;;;;;;;1.2;0.9;;;;;;;16.2;42.33496;932.998;;;;
2023/12/24 12:16:51;;;;;;;0.6;0.6;;;;;;;16.24;42.18945;932.9718;;;;
2023/12/24 12:19:16;;;;;;;0.2;0.2;;;;;;;16.17;41.67285;932.895;;;;
2023/12/24 12:21:45;;;;;;;0.4;0.4;;;;;;;16.23;41.5293;932.9583;;;;
2023/12/24 12:24:08;;;;;;;0.3;0.3;;;;;;;16.06;41.98633;932.9327;;;;
2023/12/24 12:26:36;;;;;;;0.8;0.4;;;;;;;16.14;41.83301;932.8987;;;;
2023/12/24 12:29:01;;;;;;;0.8;0.8;;;;;;;16.07;41.53613;933.0697;;;;
2023/12/24 12:31:30;;;;;;;1.6;1;;;;;;;16.01;41.96973;932.9412;;;;
2023/12/24 12:33:55;;;;;;;0.4;0.4;;;;;;;15.88;41.91113;932.7696;;;;
2023/12/24 12:36:20;;;;;;;1;0.5;;;;;;;15.73;42.24316;932.7227;;;;
2023/12/24 12:38:46;;;;;;;0.9;0.6;;;;;;;15.81;42.45898;932.6825;;;;
2023/12/24 12:41:11;;;;;;;0.5;0.4;;;;;;;15.84;42.83301;932.6862;;;;
2023/12/24 12:43:36;;;;;;;0.8;0.7;;;;;;;15.87;41.8877;932.9521;;;;
2023/12/24 12:46:01;;;;;;;0.3;0.3;;;;;;;15.71;42.38086;932.9436;;;;
2023/12/24 12:48:32;;;;;;;0.3;0.3;;;;;;;15.58;42.26465;933.0033;;;;
2023/12/24 12:50:59;;;;;;;0.3;0.3;;;;;;;15.59;42.60059;933.1069;;;;
2023/12/24 12:53:26;;;;;;;0.3;0.2;;;;;;;15.49;43.12207;933.0297;;;;
2023/12/24 12:55:51;;;;;;;0.3;0.3;;;;;;;15.43;43.53125;933.1495;;;;
2023/12/24 12:58:16;;;;;;;0.5;0.4;;;;;;;15.31;43.86523;933.2244;;;;
2023/12/24 13:00:43;;;;;;;0.4;0.4;;;;;;;15.29;44.33594;933.1606;;;;
2023/12/24 13:03:10;;;;;;;0.2;0.2;;;;;;;15.19;44.91602;933.2606;;;;
2023/12/24 13:05:35;;;;;;;0.4;0.2;;;;;;;15.03;45.60254;933.2583;;;;
2023/12/24 13:08:01;;;;;;;0.4;0.3;;;;;;;14.98;46.08203;933.3068;;;;
2023/12/24 13:10:30;;;;;;;0.3;0.3;;;;;;;14.87;45.97754;933.1337;;;;
2023/12/24 13:12:58;;;;;;;1;0.5;;;;;;;14.78;46.15332;933.0042;;;;
2023/12/24 13:15:20;;;;;;;0.6;0.4;;;;;;;14.76;46.19727;933.1199;;;;
2023/12/24 13:17:46;;;;;;;0.4;0.4;;;;;;;14.74;46.5293;933.3815;;;;
2023/12/24 13:20:10;;;;;;;0.3;0.3;;;;;;;14.75;46.6123;933.3036;;;;
2023/12/24 13:22:40;;;;;;;0.9;0.3;;;;;;;14.7;46.91797;933.3187;;;;
2023/12/24 13:25:05;;;;;;;0.2;0.2;;;;;;;14.59;47.21582;933.2976;;;;
2023/12/24 13:27:36;;;;;;;0.2;0.2;;;;;;;14.67;46.95898;933.3922;;;;
2023/12/24 13:30:02;;;;;;;0.7;0.4;;;;;;;14.71;46.41113;933.2032;;;;
2023/12/24 13:32:33;;;;;;;0.4;0.4;;;;;;;14.73;46.60938;933.2445;;;;
2023/12/24 13:34:58;;;;;;;0.4;0.4;;;;;;;14.78;46.51074;933.2736;;;;
2023/12/24 13:37:23;;;;;;;0.3;0.3;;;;;;;14.76;47.01563;933.2297;;;;
2023/12/24 13:39:56;;;;;;;0.2;0.2;;;;;;;14.83;46.64258;933.3981;;;;
2023/12/24 13:42:27;;;;;;;0.2;0.2;;;;;;;14.85;46.63184;933.3058;;;;
2023/12/24 13:44:56;;;;;;;0.3;0.3;;;;;;;14.76;46.72754;933.3452;;;;
2023/12/24 13:47:28;;;;;;;0.2;0.2;;;;;;;14.7;47.30859;933.3981;;;;
2023/12/24 13:49:57;;;;;;;0.2;0.2;;;;;;;14.66;48.13477;933.4764;;;;
2023/12/24 13:52:21;;;;;;;0.8;0.3;;;;;;;14.57;49.53125;933.5326;;;;
2023/12/24 13:54:49;;;;;;;0.3;0.3;;;;;;;14.59;49.58984;933.478;;;;
2023/12/24 13:57:14;;;;;;;0.2;0.2;;;;;;;14.47;49.47363;933.498;;;;
2023/12/24 13:59:44;;;;;;;0.5;0.2;;;;;;;14.58;49.11621;933.3699;;;;
2023/12/24 14:02:10;;;;;;;0.2;0.2;;;;;;;14.47;49.26563;933.4059;;;;
2023/12/24 14:04:35;;;;;;;0.2;0.2;;;;;;;14.45;48.60742;933.3276;;;;
2023/12/24 14:07:02;;;;;;;0.2;0.2;;;;;;;14.39;48.86426;933.2029;;;;
2023/12/24 14:09:27;;;;;;;0.8;0.4;;;;;;;14.38;48.47266;933.251;;;;
2023/12/24 14:12:01;;;;;;;0.4;0.3;;;;;;;14.37;48.79395;933.2712;;;;
2023/12/24 14:14:35;;;;;;;0.4;0.3;;;;;;;14.36;48.80469;933.2385;;;;
2023/12/24 14:17:00;;;;;;;1.7;1.3;;;;;;;14.34;48.88281;933.4317;;;;
2023/12/24 14:19:25;;;;;;;1.8;1.7;;;;;;;14.4;48.85449;933.3621;;;;
2023/12/24 14:22:00;;;;;;;0.9;0.8;;;;;;;14.4;48.52051;933.4975;;;;
2023/12/24 14:24:29;;;;;;;1;0.5;;;;;;;14.31;48.5918;933.4938;;;;
2023/12/24 14:26:56;;;;;;;0.4;0.4;;;;;;;14.32;48.21191;933.5922;;;;
2023/12/24 14:29:29;;;;;;;0.5;0.5;;;;;;;14.47;47.90625;933.5452;;;;
2023/12/24 14:31:57;;;;;;;0.2;0.2;;;;;;;14.48;47.79199;933.5123;;;;
2023/12/24 14:34:22;;;;;;;2.2;1.2;;;;;;;14.49;47.88477;933.6555;;;;
2023/12/24 14:36:47;;;;;;;9.2;7.4;;;;;;;14.36;48.10156;933.7037;;;;